createdAt,value
2019-05-14T00:00:41.648Z,56.83
2019-05-14T00:03:11.271Z,57.23
2019-05-14T00:05:38.776Z,57.69
2019-05-14T00:08:06.447Z,57.21
2019-05-14T00:10:34.125Z,57.05
2019-05-14T00:13:01.821Z,56.62
2019-05-14T00:15:32.023Z,57.02
2019-05-14T00:18:01.080Z,56.01
2019-05-14T00:20:28.452Z,55.74
2019-05-14T00:22:56.109Z,55.59
2019-05-14T00:25:23.771Z,55.82
2019-05-14T00:27:51.947Z,55.87
2019-05-14T00:30:21.888Z,56.30
2019-05-14T00:32:49.144Z,56.05
2019-05-14T00:35:16.809Z,55.85
2019-05-14T00:37:44.456Z,55.80
2019-05-14T00:40:12.112Z,55.62
2019-05-14T00:42:41.422Z,55.58
2019-05-14T00:45:11.379Z,56.36
2019-05-14T00:47:38.684Z,56.67
2019-05-14T00:50:06.488Z,56.33
2019-05-14T00:52:34.140Z,56.14
2019-05-14T00:55:01.854Z,56.03
2019-05-14T00:57:31.488Z,55.62
2019-05-14T01:00:00.948Z,55.39
2019-05-14T01:02:28.250Z,55.50
2019-05-14T01:04:56.000Z,55.49
2019-05-14T01:07:23.639Z,56.31
2019-05-14T01:09:52.438Z,56.13
2019-05-14T01:12:21.432Z,55.56
2019-05-14T01:14:51.461Z,55.94
2019-05-14T01:17:18.647Z,55.40
2019-05-14T01:19:46.312Z,55.38
2019-05-14T01:22:14.510Z,54.83
2019-05-14T01:24:42.240Z,55.71
2019-05-14T01:27:12.096Z,55.86
2019-05-14T01:29:39.303Z,56.16
2019-05-14T01:32:06.960Z,56.02
2019-05-14T01:34:34.612Z,55.24
2019-05-14T01:37:02.622Z,55.44
2019-05-14T01:39:32.021Z,56.01
2019-05-14T01:42:02.198Z,55.81
2019-05-14T01:44:29.147Z,56.29
2019-05-14T01:46:56.812Z,56.54
2019-05-14T01:49:24.480Z,57.82
2019-05-14T01:51:52.128Z,56.89
2019-05-14T01:54:21.177Z,56.28
2019-05-14T01:56:48.920Z,57.72
2019-05-14T01:59:16.584Z,58.39
2019-05-14T02:01:44.249Z,58.23
2019-05-14T02:04:11.904Z,57.85
2019-05-14T02:06:41.311Z,57.62
2019-05-14T02:09:11.037Z,57.56
2019-05-14T02:11:38.284Z,56.67
2019-05-14T02:14:05.940Z,56.04
2019-05-14T02:16:33.789Z,53.90
2019-05-14T02:19:01.563Z,55.53
2019-05-14T02:21:31.495Z,55.38
2019-05-14T02:23:58.605Z,55.38
2019-05-14T02:26:26.266Z,55.31
2019-05-14T02:28:53.911Z,55.67
2019-05-14T02:31:21.575Z,56.19
2019-05-14T02:33:50.291Z,56.64
2019-05-14T02:36:19.467Z,57.06
2019-05-14T02:38:49.332Z,57.07
2019-05-14T02:41:19.576Z,56.98
2019-05-14T02:43:46.138Z,57.30
2019-05-14T02:46:17.528Z,57.53
2019-05-14T02:48:43.155Z,57.89
2019-05-14T02:51:10.817Z,57.99
2019-05-14T02:53:39.128Z,58.91
2019-05-14T02:56:10.229Z,59.18
2019-05-14T02:58:39.837Z,59.54
2019-05-14T03:01:09.243Z,60.50
2019-05-14T03:03:35.272Z,60.82
2019-05-14T03:06:02.933Z,60.82
2019-05-14T03:08:30.880Z,60.58
2019-05-14T03:11:00.253Z,60.48
2019-05-14T03:13:29.576Z,60.08
2019-05-14T03:15:59.372Z,59.73
2019-05-14T03:18:29.622Z,59.83
2019-05-14T03:20:56.417Z,59.88
2019-05-14T03:23:24.078Z,60.56
2019-05-14T03:25:51.745Z,60.51
2019-05-14T03:28:20.104Z,60.92
2019-05-14T03:30:52.507Z,60.51
2019-05-14T03:33:22.168Z,60.46
2019-05-14T03:35:51.815Z,60.61
2019-05-14T03:38:16.036Z,60.37
2019-05-14T03:40:43.692Z,60.79
2019-05-14T03:43:11.363Z,60.50
2019-05-14T03:45:39.292Z,60.66
2019-05-14T03:48:10.191Z,61.13
2019-05-14T03:50:38.922Z,60.49
2019-05-14T03:53:05.784Z,59.95
2019-05-14T03:55:33.455Z,59.83
2019-05-14T03:58:01.143Z,59.68
2019-05-14T04:00:29.370Z,60.11
2019-05-14T04:03:00.225Z,60.20
2019-05-14T04:05:29.432Z,60.03
2019-05-14T04:07:55.950Z,59.62
2019-05-14T04:10:23.628Z,59.51
2019-05-14T04:12:51.290Z,59.21
2019-05-14T04:15:19.343Z,59.30
2019-05-14T04:17:50.142Z,59.28
2019-05-14T04:20:19.467Z,59.13
2019-05-14T04:22:45.849Z,58.75
2019-05-14T04:25:13.497Z,58.84
2019-05-14T04:27:41.702Z,57.30
2019-05-14T04:30:09.596Z,52.77
2019-05-14T04:32:39.474Z,51.76
2019-05-14T04:35:09.565Z,50.07
2019-05-14T04:37:36.062Z,48.11
2019-05-14T04:40:03.721Z,47.36
2019-05-14T04:42:31.378Z,46.92
2019-05-14T04:45:04.464Z,46.32
2019-05-14T04:47:36.023Z,45.77
2019-05-14T04:49:59.181Z,45.45
2019-05-14T04:52:29.296Z,44.46
2019-05-14T04:54:59.211Z,46.37
2019-05-14T04:57:25.957Z,45.65
2019-05-14T04:59:53.622Z,45.16
2019-05-14T05:02:21.272Z,46.02
2019-05-14T05:04:50.721Z,44.61
2019-05-14T05:07:19.182Z,44.75
2019-05-14T05:09:49.899Z,43.96
2019-05-14T05:12:19.420Z,42.96
2019-05-14T05:14:45.943Z,41.36
2019-05-14T05:17:13.620Z,42.73
2019-05-14T05:19:45.345Z,42.18
2019-05-14T05:22:10.700Z,43.27
2019-05-14T05:24:38.372Z,43.45
2019-05-14T05:27:06.043Z,44.49
2019-05-14T05:29:33.712Z,45.85
2019-05-14T05:32:01.367Z,46.09
2019-05-14T05:34:29.036Z,46.04
2019-05-14T05:36:59.005Z,46.42
2019-05-14T05:39:28.204Z,45.89
2019-05-14T05:41:55.537Z,45.09
2019-05-14T05:44:23.202Z,44.96
2019-05-14T05:46:50.889Z,44.32
2019-05-14T05:49:18.809Z,43.10
2019-05-14T05:51:48.388Z,43.02
2019-05-14T05:54:18.350Z,42.95
2019-05-14T05:56:45.456Z,41.12
2019-05-14T05:59:13.121Z,41.86
2019-05-14T06:01:46.138Z,42.55
2019-05-14T06:04:10.217Z,42.64
2019-05-14T06:06:39.022Z,42.10
2019-05-14T06:09:08.911Z,42.10
2019-05-14T06:11:38.164Z,42.12
2019-05-14T06:14:08.151Z,41.90
2019-05-14T06:16:35.030Z,43.15
2019-05-14T06:19:02.675Z,41.38
2019-05-14T06:21:30.343Z,40.79
2019-05-14T06:23:58.358Z,42.43
2019-05-14T06:26:28.802Z,42.32
2019-05-14T06:28:55.896Z,40.53
2019-05-14T06:31:23.554Z,39.69
2019-05-14T06:33:51.228Z,41.03
2019-05-14T06:36:19.722Z,41.95
2019-05-14T06:38:49.335Z,40.69
2019-05-14T06:41:19.151Z,40.31
2019-05-14T06:43:48.611Z,41.27
2019-05-14T06:46:15.829Z,40.13
2019-05-14T06:48:43.514Z,40.46
2019-05-14T06:51:11.166Z,41.99
2019-05-14T06:53:39.431Z,42.17
2019-05-14T06:56:08.205Z,41.87
2019-05-14T06:58:38.668Z,41.41
2019-05-14T07:01:05.587Z,40.49
2019-05-14T07:03:33.240Z,41.99
2019-05-14T07:06:01.007Z,41.16
2019-05-14T07:08:28.761Z,41.36
2019-05-14T07:10:59.014Z,41.57
2019-05-14T07:13:25.888Z,41.92
2019-05-14T07:15:53.553Z,43.33
2019-05-14T07:18:21.234Z,43.02
2019-05-14T07:20:48.946Z,43.42
2019-05-14T07:23:19.187Z,41.83
2019-05-14T07:25:48.165Z,41.28
2019-05-14T07:28:15.376Z,41.47
2019-05-14T07:30:43.044Z,42.47
2019-05-14T07:33:10.724Z,42.42
2019-05-14T07:35:38.455Z,42.05
2019-05-14T07:38:08.782Z,41.27
2019-05-14T07:40:35.464Z,40.56
2019-05-14T07:43:03.124Z,42.20
2019-05-14T07:45:33.317Z,42.86
2019-05-14T07:48:00.184Z,45.38
2019-05-14T07:50:28.964Z,44.42
2019-05-14T07:52:58.690Z,44.74
2019-05-14T07:55:26.269Z,45.14
2019-05-14T07:57:53.924Z,44.50
2019-05-14T08:00:21.667Z,45.06
2019-05-14T08:02:49.333Z,44.71
2019-05-14T08:05:18.124Z,44.44
2019-05-14T08:07:47.959Z,44.38
2019-05-14T08:10:15.303Z,42.30
2019-05-14T08:12:42.963Z,43.66
2019-05-14T08:15:18.315Z,43.27
2019-05-14T08:17:40.017Z,43.39
2019-05-14T08:20:09.025Z,43.51
2019-05-14T08:22:38.312Z,43.67
2019-05-14T08:25:08.452Z,41.75
2019-05-14T08:27:35.540Z,42.09
2019-05-14T08:30:03.198Z,43.16
2019-05-14T08:32:30.870Z,42.98
2019-05-14T08:34:58.561Z,43.55
2019-05-14T08:37:27.962Z,43.48
2019-05-14T08:39:55.837Z,43.60
2019-05-14T08:42:23.536Z,43.14
2019-05-14T08:44:51.589Z,42.49
2019-05-14T08:47:19.464Z,43.32
2019-05-14T08:49:50.513Z,43.87
2019-05-14T08:52:18.965Z,43.91
2019-05-14T08:54:45.910Z,44.26
2019-05-14T08:57:13.724Z,43.59
2019-05-14T08:59:41.607Z,45.22
2019-05-14T09:02:10.679Z,44.66
2019-05-14T09:04:43.130Z,45.02
2019-05-14T09:07:09.480Z,44.63
2019-05-14T09:09:38.203Z,45.29
2019-05-14T09:12:12.189Z,44.26
2019-05-14T09:14:35.440Z,43.75
2019-05-14T09:17:03.099Z,43.56
2019-05-14T09:19:30.768Z,42.46
2019-05-14T09:21:59.014Z,42.21
2019-05-14T09:24:29.246Z,42.93
2019-05-14T09:26:56.248Z,42.59
2019-05-14T09:29:26.132Z,43.70
2019-05-14T09:31:53.272Z,43.02
2019-05-14T09:34:20.941Z,42.31
2019-05-14T09:36:48.986Z,42.29
2019-05-14T09:39:18.732Z,40.47
2019-05-14T09:41:48.256Z,38.94
2019-05-14T09:44:15.629Z,38.57
2019-05-14T09:46:43.275Z,39.38
2019-05-14T09:49:10.930Z,39.36
2019-05-14T09:51:38.630Z,39.46
2019-05-14T09:54:08.360Z,39.89
2019-05-14T09:56:35.725Z,41.60
2019-05-14T09:59:03.384Z,40.34
2019-05-14T10:01:31.041Z,40.28
2019-05-14T10:03:59.466Z,38.41
2019-05-14T10:06:28.437Z,37.12
2019-05-14T10:08:58.843Z,38.25
2019-05-14T10:11:25.771Z,37.29
2019-05-14T10:13:53.433Z,37.79
2019-05-14T10:16:21.132Z,38.44
2019-05-14T10:18:52.373Z,38.13
2019-05-14T10:21:19.306Z,38.25
2019-05-14T10:23:47.047Z,37.72
2019-05-14T10:26:14.725Z,37.09
2019-05-14T10:28:43.573Z,38.33
2019-05-14T10:31:13.316Z,37.21
2019-05-14T10:33:40.812Z,37.81
2019-05-14T10:36:09.153Z,38.55
2019-05-14T10:38:38.792Z,38.83
2019-05-14T10:41:09.062Z,40.25
2019-05-14T10:43:36.092Z,40.35
2019-05-14T10:46:03.752Z,43.00
2019-05-14T10:48:31.452Z,42.40
2019-05-14T10:51:03.409Z,42.64
2019-05-14T10:53:29.189Z,42.54
2019-05-14T10:55:58.235Z,41.27
2019-05-14T10:58:28.836Z,41.30
2019-05-14T11:00:55.588Z,39.70
2019-05-14T11:03:23.244Z,40.15
2019-05-14T11:05:50.899Z,41.25
2019-05-14T11:08:19.016Z,39.69
2019-05-14T11:10:49.473Z,38.77
2019-05-14T11:13:16.208Z,39.89
2019-05-14T11:15:45.621Z,40.65
2019-05-14T11:18:14.172Z,41.57
2019-05-14T11:20:42.425Z,43.94
2019-05-14T11:23:10.356Z,45.33
2019-05-14T11:25:38.439Z,46.28
2019-05-14T11:28:06.231Z,48.45
2019-05-14T11:30:33.921Z,49.32
2019-05-14T11:33:01.572Z,49.74
2019-05-14T11:35:29.295Z,49.46
2019-05-14T11:37:58.837Z,50.52
2019-05-14T11:40:26.328Z,49.18
2019-05-14T11:42:54.068Z,46.19
2019-05-14T11:45:21.809Z,46.87
2019-05-14T11:47:49.541Z,47.63
2019-05-14T11:50:19.145Z,48.56
2019-05-14T11:52:48.403Z,46.57
2019-05-14T11:55:18.489Z,47.70
2019-05-14T11:57:45.553Z,49.20
2019-05-14T12:00:13.284Z,49.19
2019-05-14T12:02:40.948Z,48.07
2019-05-14T12:05:08.927Z,45.64
2019-05-14T12:07:38.828Z,46.19
2019-05-14T12:10:08.841Z,48.18
2019-05-14T12:12:35.696Z,50.96
2019-05-14T12:15:03.498Z,51.18
2019-05-14T12:17:31.681Z,54.44
2019-05-14T12:19:59.526Z,56.36
2019-05-14T12:22:28.655Z,56.65
2019-05-14T12:24:58.366Z,56.30
2019-05-14T12:27:25.888Z,55.19
2019-05-14T12:29:53.548Z,55.70
2019-05-14T12:32:21.312Z,56.85
2019-05-14T12:34:49.152Z,55.58
2019-05-14T12:37:18.643Z,55.31
2019-05-14T12:39:46.207Z,55.06
2019-05-14T12:42:13.893Z,56.16
2019-05-14T12:44:42.424Z,54.02
2019-05-14T12:47:10.210Z,52.59
2019-05-14T12:49:38.746Z,54.23
2019-05-14T12:52:21.103Z,56.70
2019-05-14T12:54:38.459Z,55.65
2019-05-14T12:57:05.530Z,53.21
2019-05-14T12:59:33.195Z,52.90
2019-05-14T13:02:00.858Z,51.24
2019-05-14T13:04:28.676Z,52.90
2019-05-14T13:06:59.532Z,53.01
2019-05-14T13:09:26.105Z,52.70
2019-05-14T13:11:54.356Z,50.60
2019-05-14T13:14:22.103Z,49.66
2019-05-14T13:16:49.752Z,51.04
2019-05-14T13:19:18.966Z,54.89
2019-05-14T13:21:48.904Z,53.00
2019-05-14T13:24:18.150Z,55.96
2019-05-14T13:26:45.646Z,55.27
2019-05-14T13:29:13.316Z,55.12
2019-05-14T13:31:40.984Z,53.67
2019-05-14T13:34:09.016Z,54.85
2019-05-14T13:36:39.521Z,54.03
2019-05-14T13:39:09.290Z,54.60
2019-05-14T13:41:35.937Z,53.59
2019-05-14T13:44:17.242Z,53.88
2019-05-14T13:46:33.157Z,52.15
2019-05-14T13:49:00.905Z,52.29
2019-05-14T13:51:32.586Z,52.86
2019-05-14T13:53:58.931Z,52.40
2019-05-14T13:56:28.345Z,51.90
2019-05-14T13:58:58.896Z,51.37
2019-05-14T14:01:25.698Z,51.21
2019-05-14T14:04:06.483Z,51.73
2019-05-14T14:06:22.776Z,52.26
2019-05-14T14:08:50.425Z,52.26
2019-05-14T14:11:19.428Z,52.02
2019-05-14T14:13:48.977Z,51.62
2019-05-14T14:16:19.483Z,51.22
2019-05-14T14:18:49.737Z,51.22
2019-05-14T14:21:15.605Z,52.69
2019-05-14T14:23:43.281Z,52.57
2019-05-14T14:26:11.021Z,52.38
2019-05-14T14:28:39.525Z,52.21
2019-05-14T14:31:10.795Z,51.17
2019-05-14T14:33:39.174Z,52.45
2019-05-14T14:36:06.473Z,53.61
2019-05-14T14:38:34.125Z,54.67
2019-05-14T14:41:01.806Z,54.91
2019-05-14T14:43:29.722Z,55.42
2019-05-14T14:45:59.395Z,56.55
2019-05-14T14:48:29.895Z,55.24
2019-05-14T14:50:58.565Z,55.47
2019-05-14T14:53:41.417Z,53.13
2019-05-14T14:55:55.071Z,53.36
2019-05-14T14:58:25.185Z,53.42
2019-05-14T15:00:52.844Z,53.08
2019-05-14T15:03:21.354Z,52.24
2019-05-14T15:05:49.986Z,52.51
2019-05-14T15:08:20.112Z,51.25
2019-05-14T15:10:48.625Z,51.26
2019-05-14T15:13:16.513Z,52.02
2019-05-14T15:15:44.239Z,51.11
2019-05-14T15:18:14.061Z,50.57
2019-05-14T15:20:41.291Z,52.51
2019-05-14T15:23:09.946Z,51.61
2019-05-14T15:25:37.931Z,51.60
2019-05-14T15:28:05.660Z,51.99
2019-05-14T15:30:33.337Z,52.33
2019-05-14T15:33:01.028Z,51.68
2019-05-14T15:35:28.823Z,52.37
2019-05-14T15:37:58.793Z,51.64
2019-05-14T15:40:28.684Z,51.43
2019-05-14T15:42:55.271Z,52.15
2019-05-14T15:45:22.939Z,51.45
2019-05-14T15:47:50.625Z,51.75
2019-05-14T15:50:20.110Z,51.44
2019-05-14T15:52:48.707Z,48.79
2019-05-14T15:55:18.369Z,48.75
2019-05-14T15:57:46.270Z,47.67
2019-05-14T16:00:13.945Z,48.42
2019-05-14T16:02:41.620Z,46.74
2019-05-14T16:05:10.222Z,43.96
2019-05-14T16:07:39.083Z,44.63
2019-05-14T16:10:08.553Z,42.41
2019-05-14T16:12:39.537Z,41.01
2019-05-14T16:15:08.356Z,39.32
2019-05-14T16:17:35.332Z,41.26
2019-05-14T16:20:02.994Z,38.86
2019-05-14T16:22:30.681Z,38.67
2019-05-14T16:25:01.004Z,41.37
2019-05-14T16:27:29.786Z,40.35
2019-05-14T16:29:58.719Z,40.67
2019-05-14T16:32:28.513Z,36.97
2019-05-14T16:34:57.948Z,37.69
2019-05-14T16:37:25.267Z,37.68
2019-05-14T16:39:52.985Z,36.94
2019-05-14T16:42:20.996Z,36.62
2019-05-14T16:44:48.697Z,37.27
2019-05-14T16:47:18.715Z,36.30
2019-05-14T16:49:48.127Z,36.43
2019-05-14T16:52:15.266Z,36.92
2019-05-14T16:54:42.964Z,36.79
2019-05-14T16:57:11.272Z,37.17
2019-05-14T16:59:39.640Z,36.78
2019-05-14T17:02:09.165Z,38.16
2019-05-14T17:04:38.760Z,37.45
2019-05-14T17:07:06.173Z,36.38
2019-05-14T17:09:33.840Z,35.62
2019-05-14T17:12:01.503Z,36.27
2019-05-14T17:14:29.453Z,35.41
2019-05-14T17:16:59.429Z,35.41
2019-05-14T17:19:26.560Z,37.12
2019-05-14T17:21:54.257Z,35.74
2019-05-14T17:24:21.929Z,35.25
2019-05-14T17:26:49.605Z,35.44
2019-05-14T17:29:19.167Z,35.85
2019-05-14T17:31:49.145Z,36.15
2019-05-14T17:34:18.393Z,35.51
2019-05-14T17:36:45.364Z,36.04
2019-05-14T17:39:13.019Z,37.41
2019-05-14T17:41:41.886Z,34.76
2019-05-14T17:44:09.949Z,35.09
2019-05-14T17:46:39.444Z,36.51
2019-05-14T17:49:06.968Z,36.72
2019-05-14T17:51:34.648Z,35.44
2019-05-14T17:54:02.403Z,34.94
2019-05-14T17:56:30.057Z,34.92
2019-05-14T17:58:58.024Z,34.83
2019-05-14T18:01:25.887Z,34.74
2019-05-14T18:03:53.538Z,34.68
2019-05-14T18:06:21.203Z,35.12
2019-05-14T18:08:48.963Z,35.15
2019-05-14T18:11:18.972Z,35.67
2019-05-14T18:13:48.287Z,34.93
2019-05-14T18:16:15.433Z,35.88
2019-05-14T18:18:43.280Z,35.51
2019-05-14T18:21:10.987Z,34.84
2019-05-14T18:23:41.899Z,35.09
2019-05-14T18:26:09.278Z,35.09
2019-05-14T18:28:38.312Z,35.21
2019-05-14T18:31:06.260Z,35.27
2019-05-14T18:33:33.907Z,35.31
2019-05-14T18:36:01.595Z,35.51
2019-05-14T18:38:34.749Z,36.13
2019-05-14T18:41:02.435Z,36.09
2019-05-14T18:43:30.116Z,36.01
2019-05-14T18:45:58.704Z,35.95
2019-05-14T18:48:28.764Z,36.27
2019-05-14T18:50:55.895Z,36.07
2019-05-14T18:53:23.561Z,37.49
2019-05-14T18:55:51.296Z,36.92
2019-05-14T18:58:19.652Z,36.52
2019-05-14T19:00:47.859Z,36.75
2019-05-14T19:03:15.661Z,36.71
2019-05-14T19:05:43.365Z,37.26
2019-05-14T19:08:11.050Z,37.16
2019-05-14T19:10:39.156Z,37.47
2019-05-14T19:13:08.857Z,37.38
2019-05-14T19:15:38.707Z,38.08
2019-05-14T19:18:08.928Z,37.94
2019-05-14T19:20:35.510Z,38.47
2019-05-14T19:23:03.169Z,38.28
2019-05-14T19:25:30.823Z,38.12
2019-05-14T19:27:58.501Z,38.16
2019-05-14T19:30:28.453Z,38.02
2019-05-14T19:32:55.504Z,38.16
2019-05-14T19:35:23.156Z,38.47
2019-05-14T19:37:50.865Z,38.76
2019-05-14T19:40:19.044Z,39.33
2019-05-14T19:42:48.538Z,38.71
2019-05-14T19:45:16.415Z,39.12
2019-05-14T19:47:44.071Z,38.87
2019-05-14T19:50:11.732Z,39.62
2019-05-14T19:52:39.396Z,39.18
2019-05-14T19:55:07.059Z,39.66
2019-05-14T19:57:34.730Z,39.34
2019-05-14T20:00:02.387Z,39.79
2019-05-14T20:02:30.035Z,39.78
2019-05-14T20:04:58.868Z,39.63
2019-05-14T20:07:27.977Z,39.78
2019-05-14T20:09:55.772Z,39.41
2019-05-14T20:12:23.429Z,39.44
2019-05-14T20:14:51.092Z,39.80
2019-05-14T20:17:19.372Z,40.16
2019-05-14T20:19:49.318Z,39.87
2019-05-14T20:22:18.933Z,40.11
2019-05-14T20:24:48.260Z,41.22
2019-05-14T20:27:15.366Z,40.65
2019-05-14T20:29:43.019Z,40.64
2019-05-14T20:32:10.676Z,40.69
2019-05-14T20:34:38.331Z,40.80
2019-05-14T20:37:08.317Z,40.26
2019-05-14T20:39:35.331Z,40.83
2019-05-14T20:42:03.077Z,40.54
2019-05-14T20:44:30.744Z,40.86
2019-05-14T20:46:58.423Z,40.86
2019-05-14T20:49:28.271Z,41.03
2019-05-14T20:51:55.488Z,41.37
2019-05-14T20:54:23.141Z,40.93
2019-05-14T20:56:50.792Z,41.38
2019-05-14T20:59:19.167Z,41.21
2019-05-14T21:01:47.095Z,41.34
2019-05-14T21:04:14.758Z,41.21
2019-05-14T21:06:42.408Z,41.39
2019-05-14T21:09:13.087Z,41.41
2019-05-14T21:11:39.495Z,41.88
2019-05-14T21:14:08.930Z,41.90
2019-05-14T21:16:38.955Z,41.90
2019-05-14T21:19:08.453Z,42.07
2019-05-14T21:21:35.585Z,41.63
2019-05-14T21:24:03.284Z,42.38
2019-05-14T21:26:30.933Z,42.11
2019-05-14T21:28:58.595Z,42.40
2019-05-14T21:31:28.210Z,41.51
2019-05-14T21:33:55.659Z,41.87
2019-05-14T21:36:23.316Z,42.70
2019-05-14T21:38:50.971Z,42.93
2019-05-14T21:41:20.475Z,42.71
2019-05-14T21:43:49.278Z,42.95
2019-05-14T21:46:19.211Z,43.02
2019-05-14T21:48:47.820Z,42.97
2019-05-14T21:51:17.678Z,42.83
2019-05-14T21:53:45.010Z,43.67
2019-05-14T21:56:12.660Z,42.56
2019-05-14T21:58:40.320Z,43.99
2019-05-14T22:01:08.103Z,43.09
2019-05-14T22:03:35.790Z,43.83
2019-05-14T22:06:03.551Z,43.83
2019-05-14T22:08:31.413Z,43.39
2019-05-14T22:10:59.076Z,44.26
2019-05-14T22:13:28.440Z,44.41
2019-05-14T22:15:58.785Z,43.46
2019-05-14T22:18:27.760Z,43.28
2019-05-14T22:20:55.035Z,43.41
2019-05-14T22:23:22.719Z,43.62
2019-05-14T22:25:50.425Z,43.46
2019-05-14T22:28:18.999Z,43.50
2019-05-14T22:30:46.820Z,43.48
2019-05-14T22:33:14.475Z,43.92
2019-05-14T22:35:42.152Z,44.27
2019-05-14T22:38:09.865Z,43.46
2019-05-14T22:40:39.060Z,44.32
2019-05-14T22:43:09.183Z,44.35
2019-05-14T22:45:36.352Z,44.12
2019-05-14T22:48:04.030Z,44.84
2019-05-14T22:50:31.680Z,45.19
2019-05-14T22:52:59.328Z,44.29
2019-05-14T22:55:30.958Z,45.38
2019-05-14T22:57:58.967Z,45.00
2019-05-14T23:00:28.300Z,44.38
2019-05-14T23:02:55.094Z,44.05
2019-05-14T23:05:22.760Z,45.16
2019-05-14T23:07:50.436Z,43.37
2019-05-14T23:10:18.455Z,43.23
2019-05-14T23:12:46.244Z,43.60
2019-05-14T23:15:13.906Z,43.99
2019-05-14T23:17:41.549Z,45.18
2019-05-14T23:20:09.323Z,45.87
2019-05-14T23:22:38.994Z,45.37
2019-05-14T23:25:08.724Z,45.13
2019-05-14T23:27:38.293Z,45.10
2019-05-14T23:30:05.277Z,46.74
2019-05-14T23:32:32.953Z,47.24
2019-05-14T23:35:00.627Z,47.83
2019-05-14T23:37:29.121Z,48.69
2019-05-14T23:39:58.594Z,48.67
2019-05-14T23:42:27.953Z,49.85
2019-05-14T23:44:55.783Z,50.37
2019-05-14T23:47:23.441Z,49.73
2019-05-14T23:49:51.111Z,49.23
2019-05-14T23:52:19.327Z,47.90
2019-05-14T23:54:48.053Z,48.29
2019-05-14T23:57:18.150Z,48.68
2019-05-14T23:59:45.353Z,48.23
